Time;durP1;ratioP1;P1;durP2;ratioP2;P2;SDS_P1;SDS_P2;PMS_P1;PMS_P2;Temp;Humidity;BMP_temperature;BMP_pressure;BME280_temperature;BME280_humidity;BME280_pressure;Samples;Min_cycle;Max_cycle;Signal;HPM_P1;HPM_P2
2022/03/12 00:01:04;;;;;;;39.53;15.05;;;;;;;-1.03;38.03;101571.84;4365489;32;33412;-82
2022/03/12 00:03:33;;;;;;;43.40;14.93;;;;;;;-1.06;37.64;101572.59;4372119;32;35014;-83
2022/03/12 00:06:01;;;;;;;27.02;11.27;;;;;;;-0.73;37.11;101574.50;4348078;32;33615;-82
2022/03/12 00:08:43;;;;;;;18.60;9.75;;;;;;;-0.82;37.30;101572.50;4360609;32;34043;-82
2022/03/12 00:11:15;;;;;;;25.83;8.68;;;;;;;-0.91;37.34;101577.38;4371808;32;34492;-81
2022/03/12 00:13:44;;;;;;;26.85;10.93;;;;;;;-1.17;37.93;101570.50;4372536;32;34589;-83
2022/03/12 00:16:16;;;;;;;20.70;7.93;;;;;;;-1.16;38.10;101569.69;4354772;32;33674;-82
2022/03/12 00:18:47;;;;;;;24.23;10.43;;;;;;;-0.93;37.60;101567.81;4359805;32;32613;-83
2022/03/12 00:21:17;;;;;;;24.40;10.18;;;;;;;-1.09;38.59;101574.25;4353400;32;33340;-82
2022/03/12 00:23:49;;;;;;;19.48;8.40;;;;;;;-1.09;38.61;101574.25;4355190;32;34237;-82
2022/03/12 00:26:18;;;;;;;29.67;9.18;;;;;;;-1.38;39.29;101568.97;4362337;32;33064;-82
2022/03/12 00:28:46;;;;;;;23.00;9.32;;;;;;;-1.34;39.03;101569.94;4362024;32;33444;-82
2022/03/12 00:31:13;;;;;;;26.90;9.10;;;;;;;-1.55;38.76;101570.13;4358699;32;34703;-82
2022/03/12 00:33:41;;;;;;;23.17;9.23;;;;;;;-1.72;39.24;101574.72;4374348;32;32918;-82
2022/03/12 00:36:09;;;;;;;28.60;10.35;;;;;;;-1.64;39.46;101570.69;4374130;32;34395;-82
2022/03/12 00:38:36;;;;;;;26.77;11.55;;;;;;;-1.39;38.99;101568.91;4353895;32;33928;-81
2022/03/12 00:41:07;;;;;;;25.52;10.25;;;;;;;-1.20;38.63;101567.81;4361491;32;34101;-83
2022/03/12 00:43:35;;;;;;;23.05;11.07;;;;;;;-1.30;39.02;101559.75;4361700;32;34489;-82
2022/03/12 00:46:05;;;;;;;40.60;13.13;;;;;;;-1.57;39.67;101556.22;4367796;32;32932;-81
2022/03/12 00:48:34;;;;;;;66.37;20.08;;;;;;;-1.85;40.26;101569.97;4374018;32;32985;-82
2022/03/12 00:51:07;;;;;;;67.25;23.55;;;;;;;-1.94;40.67;101580.00;4368167;32;33835;-81
2022/03/12 00:53:35;;;;;;;29.55;10.48;;;;;;;-1.63;40.13;101571.56;4361525;32;33017;-81
2022/03/12 00:56:05;;;;;;;18.60;8.52;;;;;;;-1.10;38.91;101562.97;4366311;32;33256;-82
2022/03/12 00:58:34;;;;;;;30.75;10.48;;;;;;;-1.45;39.62;101567.00;4359597;32;34458;-82
2022/03/12 01:01:03;;;;;;;27.30;11.32;;;;;;;-1.71;40.19;101578.19;4355682;32;34745;-82
2022/03/12 01:03:31;;;;;;;29.95;10.50;;;;;;;-1.72;40.21;101571.25;4348557;32;33371;-82
2022/03/12 01:06:01;;;;;;;25.02;10.45;;;;;;;-1.97;40.91;101570.41;4373090;32;33416;-82
2022/03/12 01:08:30;;;;;;;25.20;11.90;;;;;;;-1.95;40.87;101560.97;4367490;32;33930;-82
2022/03/12 01:11:00;;;;;;;25.37;9.55;;;;;;;-2.01;40.93;101573.72;4355716;32;34007;-82
2022/03/12 01:13:28;;;;;;;31.98;12.15;;;;;;;-1.97;41.49;101575.59;4361257;32;34773;-82
2022/03/12 01:15:56;;;;;;;29.25;10.07;;;;;;;-1.93;41.47;101576.59;4355510;32;33023;-82
2022/03/12 01:18:25;;;;;;;34.13;11.52;;;;;;;-1.97;41.64;101562.63;4358289;32;32737;-82
2022/03/12 01:20:52;;;;;;;31.05;11.45;;;;;;;-2.08;41.55;101570.03;4372733;32;33443;-81
2022/03/12 01:23:26;;;;;;;31.92;11.82;;;;;;;-2.27;41.89;101579.66;4356321;32;33870;-81
2022/03/12 01:25:53;;;;;;;28.42;10.80;;;;;;;-1.98;41.48;101568.66;4348894;32;32474;-81
2022/03/12 01:28:21;;;;;;;24.23;9.15;;;;;;;-2.27;42.08;101565.03;4371745;32;33928;-81
2022/03/12 01:30:49;;;;;;;24.42;9.18;;;;;;;-1.97;41.65;101567.81;4366445;32;33183;-81
2022/03/12 01:33:17;;;;;;;29.33;9.77;;;;;;;-1.90;41.21;101562.03;4354190;32;33976;-80
2022/03/12 01:35:45;;;;;;;30.85;10.75;;;;;;;-1.99;41.42;101571.16;4361512;32;34036;-81
2022/03/12 01:38:13;;;;;;;37.25;11.10;;;;;;;-2.22;41.80;101575.53;4355361;32;33064;-81
2022/03/12 01:40:40;;;;;;;36.83;10.90;;;;;;;-2.06;41.87;101577.84;4361805;32;33611;-81
2022/03/12 01:43:08;;;;;;;30.37;10.80;;;;;;;-2.07;41.91;101583.84;4355051;32;34448;-81
2022/03/12 01:45:36;;;;;;;31.62;8.90;;;;;;;-2.26;42.14;101581.41;4355711;32;33511;-81
2022/03/12 01:48:06;;;;;;;18.70;8.60;;;;;;;-2.44;42.47;101595.44;4361093;32;33137;-81
2022/03/12 01:50:37;;;;;;;21.75;6.43;;;;;;;-2.32;42.60;101592.44;4373761;32;33270;-81
2022/03/12 01:53:08;;;;;;;21.50;7.22;;;;;;;-2.18;41.72;101586.06;4361577;32;33856;-81
2022/03/12 01:55:39;;;;;;;18.83;7.47;;;;;;;-2.22;42.17;101593.66;4360852;32;33479;-81
2022/03/12 01:58:07;;;;;;;16.45;6.00;;;;;;;-2.12;42.07;101587.97;4361285;32;33692;-81
2022/03/12 02:00:45;;;;;;;27.00;8.30;;;;;;;-2.20;41.83;101592.00;4373538;32;33543;-81
2022/03/12 02:03:17;;;;;;;35.13;9.05;;;;;;;-2.07;41.53;101595.09;4349335;32;33437;-81
2022/03/12 02:05:45;;;;;;;31.58;8.10;;;;;;;-2.06;41.81;101596.84;4357771;32;33632;-81
2022/03/12 02:08:13;;;;;;;16.60;6.45;;;;;;;-2.17;42.17;101586.94;4353867;32;33372;-81
2022/03/12 02:10:42;;;;;;;16.05;5.65;;;;;;;-2.54;42.54;101582.97;4361228;32;33232;-81
2022/03/12 02:13:10;;;;;;;21.00;7.20;;;;;;;-2.56;42.45;101592.41;4373892;32;34262;-81
2022/03/12 02:15:39;;;;;;;26.30;9.60;;;;;;;-2.35;42.17;101582.84;4366251;32;32492;-81
2022/03/12 02:18:07;;;;;;;25.40;9.45;;;;;;;-2.33;42.26;101590.66;4354398;32;33231;-81
2022/03/12 02:20:38;;;;;;;13.88;5.93;;;;;;;-2.21;41.95;101590.22;4352968;32;35052;-82
2022/03/12 02:23:10;;;;;;;15.73;6.30;;;;;;;-2.23;42.05;101587.59;4375598;32;34176;-82
2022/03/12 02:25:38;;;;;;;13.02;5.70;;;;;;;-2.18;41.91;101577.41;4367515;32;32550;-81
2022/03/12 02:28:19;;;;;;;17.27;8.02;;;;;;;-2.38;41.98;101585.31;4361253;32;32426;-82
2022/03/12 02:30:51;;;;;;;31.63;11.10;;;;;;;-2.69;42.90;101590.16;4361120;32;33639;-82
2022/03/12 02:33:28;;;;;;;23.65;9.60;;;;;;;-2.88;43.49;101589.44;4372817;32;33346;-81
2022/03/12 02:35:56;;;;;;;21.62;8.93;;;;;;;-2.62;42.68;101590.44;4360735;32;34263;-82
2022/03/12 02:38:27;;;;;;;19.52;8.35;;;;;;;-2.63;42.60;101600.72;4356213;32;34070;-81
2022/03/12 02:41:10;;;;;;;23.75;8.07;;;;;;;-2.21;41.88;101592.81;4367717;32;33588;-82
2022/03/12 02:43:43;;;;;;;23.52;9.23;;;;;;;-2.46;42.27;101593.63;4354736;32;34924;-81
2022/03/12 02:46:15;;;;;;;19.45;8.10;;;;;;;-2.59;42.56;101592.25;4360965;32;34400;-81
2022/03/12 02:48:51;;;;;;;17.12;6.20;;;;;;;-2.81;42.45;101594.84;4367731;32;32854;-81
2022/03/12 02:51:21;;;;;;;12.07;5.47;;;;;;;-2.86;41.91;101597.25;4373534;32;33759;-80
2022/03/12 02:53:51;;;;;;;12.52;5.97;;;;;;;-2.97;40.67;101594.25;4359944;32;33821;-81
2022/03/12 02:56:19;;;;;;;16.75;6.25;;;;;;;-2.85;40.98;101599.91;4359943;32;33794;-81
2022/03/12 02:58:47;;;;;;;9.77;5.00;;;;;;;-2.45;40.85;101605.72;4355461;32;34056;-81
2022/03/12 03:01:15;;;;;;;10.88;4.20;;;;;;;-2.60;39.31;101600.84;4354965;32;33249;-80
2022/03/12 03:03:44;;;;;;;14.82;3.97;;;;;;;-2.00;38.49;101584.94;4373533;32;33357;-80
2022/03/12 03:06:15;;;;;;;3.95;2.05;;;;;;;-1.76;36.55;101585.78;4372299;32;32225;-81
2022/03/12 03:08:44;;;;;;;4.85;2.17;;;;;;;-1.78;36.08;101596.94;4373165;32;33401;-82
2022/03/12 03:11:14;;;;;;;4.00;2.65;;;;;;;-1.67;35.55;101586.13;4372919;32;34658;-82
2022/03/12 03:13:43;;;;;;;7.78;2.67;;;;;;;-1.23;34.20;101583.28;4360998;32;33741;-82
2022/03/12 03:16:21;;;;;;;6.07;1.92;;;;;;;-0.98;33.49;101584.94;4360490;32;32767;-82
2022/03/12 03:18:52;;;;;;;5.22;2.20;;;;;;;-0.68;33.20;101579.81;4347755;32;32961;-81
2022/03/12 03:21:23;;;;;;;4.60;2.87;;;;;;;-0.91;33.14;101592.94;4360189;32;34869;-80
2022/03/12 03:23:53;;;;;;;10.00;2.62;;;;;;;-0.55;32.49;101588.03;4373114;32;33260;-80
2022/03/12 03:26:48;;;;;;;9.48;3.00;;;;;;;-0.35;32.36;101595.50;4367054;32;33722;-80
2022/03/12 03:29:16;;;;;;;5.18;2.20;;;;;;;-0.32;31.82;101586.09;4360622;32;34543;-80
2022/03/12 03:31:44;;;;;;;7.12;2.28;;;;;;;-0.24;31.93;101582.84;4366440;32;33812;-80
2022/03/12 03:34:13;;;;;;;4.22;2.22;;;;;;;-0.20;31.90;101584.69;4360891;32;34105;-80
2022/03/12 03:36:41;;;;;;;4.85;2.10;;;;;;;-0.05;31.28;101585.13;4360876;32;32528;-80
2022/03/12 03:39:09;;;;;;;4.90;2.03;;;;;;;0.11;31.18;101582.13;4365831;32;34519;-80
2022/03/12 03:41:37;;;;;;;4.95;2.35;;;;;;;0.07;31.15;101582.87;4353284;32;33036;-80
2022/03/12 03:44:05;;;;;;;5.10;3.05;;;;;;;0.17;31.14;101581.41;4363324;32;33864;-80
2022/03/12 03:46:33;;;;;;;6.53;2.33;;;;;;;0.28;30.85;101586.88;4374271;32;33368;-80
2022/03/12 03:49:02;;;;;;;4.87;2.28;;;;;;;-0.03;31.85;101592.13;4360167;32;32722;-82
2022/03/12 03:51:32;;;;;;;5.25;2.03;;;;;;;-0.21;32.99;101598.50;4372813;32;33633;-82
2022/03/12 03:54:01;;;;;;;8.93;2.97;;;;;;;-0.54;33.82;101604.47;4372085;32;34048;-82
2022/03/12 03:56:29;;;;;;;5.43;2.35;;;;;;;-0.50;33.96;101601.12;4359803;32;32461;-82
2022/03/12 03:58:56;;;;;;;4.40;2.62;;;;;;;-0.28;33.68;101597.47;4347182;32;33376;-82
2022/03/12 04:01:26;;;;;;;6.30;2.30;;;;;;;-0.35;34.04;101599.00;4350136;32;32930;-81
2022/03/12 04:03:54;;;;;;;6.40;2.50;;;;;;;-0.57;34.29;101602.69;4351080;32;34860;-82
2022/03/12 04:06:22;;;;;;;4.37;2.40;;;;;;;-0.56;35.22;101601.84;4372936;32;32396;-82
2022/03/12 04:08:52;;;;;;;4.65;2.05;;;;;;;-0.23;33.98;101595.00;4372679;32;33568;-82
2022/03/12 04:11:22;;;;;;;4.80;1.83;;;;;;;-0.42;34.18;101598.78;4372225;32;32886;-82
2022/03/12 04:13:51;;;;;;;5.75;2.42;;;;;;;-0.37;33.40;101587.69;4360542;32;33595;-82
2022/03/12 04:16:20;;;;;;;4.22;2.60;;;;;;;-0.48;33.35;101589.06;4371120;32;33606;-82
2022/03/12 04:18:49;;;;;;;6.70;2.47;;;;;;;-0.36;33.01;101588.56;4360301;32;33856;-82
2022/03/12 04:21:18;;;;;;;5.65;3.12;;;;;;;-0.36;32.64;101594.62;4371474;32;33560;-81
2022/03/12 04:23:49;;;;;;;6.78;3.00;;;;;;;-0.29;32.74;101599.16;4353776;32;33850;-82
2022/03/12 04:26:17;;;;;;;6.75;2.05;;;;;;;-0.45;33.53;101596.09;4357629;32;33508;-81
2022/03/12 04:28:45;;;;;;;5.30;2.05;;;;;;;-0.31;33.35;101598.25;4353337;32;32877;-81
2022/03/12 04:31:13;;;;;;;6.22;2.92;;;;;;;-0.60;34.66;101601.69;4364346;32;33892;-81
2022/03/12 04:33:41;;;;;;;6.60;2.42;;;;;;;-0.83;35.39;101596.66;4359727;32;34046;-81
2022/03/12 04:36:09;;;;;;;5.97;2.60;;;;;;;-0.52;35.32;101600.22;4372314;32;33683;-81
2022/03/12 04:38:39;;;;;;;4.15;2.83;;;;;;;-0.59;34.75;101595.66;4366426;32;33918;-81
2022/03/12 04:41:08;;;;;;;5.68;3.03;;;;;;;-0.72;35.83;101598.72;4351852;32;33351;-81
2022/03/12 04:43:35;;;;;;;4.72;2.37;;;;;;;-0.95;36.42;101593.72;4371945;32;33937;-81
2022/03/12 04:46:03;;;;;;;4.55;2.17;;;;;;;-1.01;36.29;101614.22;4371863;32;33651;-81
2022/03/12 04:48:32;;;;;;;3.75;2.47;;;;;;;-0.78;36.15;101600.28;4372074;32;34382;-81
2022/03/12 04:50:59;;;;;;;5.30;2.37;;;;;;;-0.95;36.69;101613.53;4352402;32;34499;-81
2022/03/12 04:53:28;;;;;;;3.25;2.25;;;;;;;-0.66;36.43;101604.13;4364090;32;34577;-81
2022/03/12 04:55:56;;;;;;;7.55;3.47;;;;;;;-0.79;36.82;101608.91;4353058;32;32161;-81
2022/03/12 04:58:23;;;;;;;8.43;3.12;;;;;;;-0.90;37.11;101610.28;4356617;32;32776;-81
2022/03/12 05:00:51;;;;;;;7.05;3.33;;;;;;;-0.87;37.45;101619.87;4362816;32;33960;-82
2022/03/12 05:03:20;;;;;;;7.28;3.12;;;;;;;-0.93;37.50;101615.38;4365592;32;33765;-81
2022/03/12 05:05:50;;;;;;;7.45;2.58;;;;;;;-0.86;37.98;101612.13;4364754;32;33566;-81
2022/03/12 05:08:21;;;;;;;4.30;2.37;;;;;;;-0.95;38.33;101617.06;4348140;32;32983;-81
2022/03/12 05:10:52;;;;;;;13.30;2.95;;;;;;;-1.23;38.92;101617.84;4373924;32;33533;-81
2022/03/12 05:13:27;;;;;;;4.30;2.85;;;;;;;-1.22;39.30;101622.19;4367789;32;34402;-81
2022/03/12 05:15:59;;;;;;;7.03;3.47;;;;;;;-1.03;38.78;101621.09;4373125;32;33720;-81
2022/03/12 05:18:27;;;;;;;5.15;2.55;;;;;;;-1.48;39.48;101618.72;4372586;32;33550;-81
2022/03/12 05:20:55;;;;;;;4.93;2.60;;;;;;;-1.38;39.37;101618.19;4360694;32;32359;-81
2022/03/12 05:23:26;;;;;;;8.18;3.45;;;;;;;-1.54;39.85;101618.50;4372915;32;33408;-81
2022/03/12 05:25:54;;;;;;;7.97;3.67;;;;;;;-1.69;40.31;101623.16;4369293;32;32335;-81
2022/03/12 05:28:28;;;;;;;8.00;2.83;;;;;;;-1.55;40.20;101624.53;4373449;32;33292;-81
2022/03/12 05:31:04;;;;;;;9.45;2.42;;;;;;;-1.66;40.95;101626.75;4367496;32;33849;-81
2022/03/12 05:33:33;;;;;;;7.05;3.47;;;;;;;-1.63;41.02;101629.44;4373252;32;33771;-81
2022/03/12 05:36:01;;;;;;;8.60;3.30;;;;;;;-1.68;41.18;101624.94;4367841;32;32992;-81
2022/03/12 05:38:31;;;;;;;8.70;3.40;;;;;;;-1.63;41.34;101618.19;4353454;32;32677;-81
2022/03/12 05:40:59;;;;;;;10.27;3.83;;;;;;;-1.75;41.26;101617.78;4366279;32;34456;-81
2022/03/12 05:43:29;;;;;;;8.77;4.40;;;;;;;-1.65;41.65;101625.03;4360352;32;32473;-80
2022/03/12 05:45:57;;;;;;;7.60;3.65;;;;;;;-1.45;41.04;101623.13;4359647;32;32485;-81
2022/03/12 05:48:25;;;;;;;6.40;3.45;;;;;;;-1.33;41.19;101620.94;4361532;32;32965;-81
2022/03/12 05:50:53;;;;;;;12.80;5.03;;;;;;;-1.36;41.06;101618.28;4360774;32;33132;-81
2022/03/12 05:53:21;;;;;;;9.43;4.95;;;;;;;-1.36;41.28;101607.91;4361309;32;34073;-81
2022/03/12 05:55:48;;;;;;;8.48;3.78;;;;;;;-1.61;41.56;101608.78;4355039;32;33013;-81
2022/03/12 05:58:19;;;;;;;7.15;3.25;;;;;;;-1.32;41.27;101610.66;4360335;32;33589;-81
2022/03/12 06:00:52;;;;;;;;;;;;;;;-1.11;39.54;101617.38;4360940;32;33987;-81
2022/03/12 06:03:21;;;;;;;5.78;2.78;;;;;;;-0.81;36.89;101615.78;4373106;32;33603;-82
2022/03/12 06:05:56;;;;;;;5.62;2.60;;;;;;;-0.63;36.16;101615.44;4360378;32;33465;-82
2022/03/12 06:08:26;;;;;;;5.53;2.78;;;;;;;-0.46;35.89;101612.50;4360965;32;34146;-82
2022/03/12 06:10:55;;;;;;;4.90;2.53;;;;;;;-0.22;35.73;101607.16;4369032;32;33708;-81
2022/03/12 06:13:25;;;;;;;3.75;1.73;;;;;;;0.06;34.97;101604.50;4361075;32;33514;-82
2022/03/12 06:15:58;;;;;;;5.03;2.22;;;;;;;-0.08;34.69;101611.91;4373880;32;34849;-81
2022/03/12 06:18:33;;;;;;;4.20;2.97;;;;;;;-0.23;33.76;101615.78;4359479;32;33015;-81
2022/03/12 06:21:06;;;;;;;9.00;2.15;;;;;;;0.17;33.17;101612.56;4373235;32;33947;-81
2022/03/12 06:23:34;;;;;;;6.18;2.28;;;;;;;0.35;33.14;101613.09;4372809;32;33700;-80
2022/03/12 06:26:02;;;;;;;4.30;2.30;;;;;;;0.63;32.66;101606.00;4348784;32;32701;-81
2022/03/12 06:28:33;;;;;;;6.35;2.60;;;;;;;0.41;32.83;101607.16;4360551;32;33656;-82
2022/03/12 06:31:02;;;;;;;6.75;2.10;;;;;;;0.87;32.65;101610.94;4340367;32;33418;-82
2022/03/12 06:33:31;;;;;;;5.50;2.20;;;;;;;0.68;32.23;101605.28;4357883;32;32718;-81
2022/03/12 06:36:01;;;;;;;5.30;2.30;;;;;;;1.01;32.55;101614.75;4346190;32;32473;-81
2022/03/12 06:38:30;;;;;;;4.18;1.95;;;;;;;1.34;31.62;101617.28;4361012;32;33719;-81
2022/03/12 06:40:58;;;;;;;5.65;2.17;;;;;;;0.92;33.53;101617.13;4373754;32;34722;-82
2022/03/12 06:43:30;;;;;;;6.40;2.53;;;;;;;1.28;32.20;101622.31;4354520;32;33490;-81
2022/03/12 06:45:59;;;;;;;5.80;3.20;;;;;;;1.32;31.13;101629.34;4360831;32;32358;-82
2022/03/12 06:48:29;;;;;;;4.22;1.55;;;;;;;1.17;31.78;101629.87;4355221;32;32826;-81
2022/03/12 06:50:56;;;;;;;4.75;2.10;;;;;;;1.35;31.47;101633.78;4360804;32;33010;-80
2022/03/12 06:53:25;;;;;;;4.80;1.90;;;;;;;1.46;31.95;101629.69;4372344;32;32820;-81
2022/03/12 06:55:53;;;;;;;4.55;2.03;;;;;;;1.82;31.25;101633.94;4361743;32;34469;-81
2022/03/12 06:58:23;;;;;;;4.55;1.87;;;;;;;1.41;31.67;101645.19;4366868;32;33591;-81
2022/03/12 07:00:51;;;;;;;5.75;2.30;;;;;;;1.20;31.04;101645.56;4352158;32;33740;-81
2022/03/12 07:03:18;;;;;;;2.95;1.95;;;;;;;1.01;31.42;101643.37;4355280;32;34763;-80
2022/03/12 07:05:48;;;;;;;4.80;1.92;;;;;;;1.25;31.18;101648.28;4372385;32;33196;-81
2022/03/12 07:08:17;;;;;;;4.85;2.30;;;;;;;1.56;30.93;101639.44;4373905;32;33504;-81
2022/03/12 07:10:45;;;;;;;2.17;1.52;;;;;;;1.42;30.82;101646.06;4369917;32;34319;-81
2022/03/12 07:13:13;;;;;;;6.78;2.03;;;;;;;1.93;30.21;101642.88;4358931;32;33230;-81
2022/03/12 07:15:41;;;;;;;8.60;2.87;;;;;;;1.92;30.59;101649.81;4372152;32;34363;-80
2022/03/12 07:18:08;;;;;;;4.65;2.58;;;;;;;2.07;30.42;101654.44;4372570;32;33481;-80
2022/03/12 07:20:36;;;;;;;6.35;2.50;;;;;;;1.94;30.20;101650.69;4372884;32;33873;-81
2022/03/12 07:23:07;;;;;;;8.35;2.28;;;;;;;1.94;30.65;101642.88;4372492;32;32892;-81
2022/03/12 07:25:35;;;;;;;5.07;2.37;;;;;;;1.78;30.48;101649.50;4372146;32;32770;-81
2022/03/12 07:28:03;;;;;;;8.85;2.67;;;;;;;1.71;30.65;101652.84;4367432;32;33258;-81
2022/03/12 07:30:31;;;;;;;4.40;2.00;;;;;;;1.97;31.18;101642.09;4355028;32;34468;-81
2022/03/12 07:32:59;;;;;;;7.60;2.70;;;;;;;2.03;31.31;101642.19;4372742;32;33454;-81
2022/03/12 07:35:26;;;;;;;13.25;3.00;;;;;;;2.23;29.75;101643.50;4366545;32;34390;-81
2022/03/12 07:37:54;;;;;;;5.03;2.40;;;;;;;2.36;30.23;101638.50;4368662;32;32858;-81
2022/03/12 07:40:22;;;;;;;7.22;2.47;;;;;;;2.31;29.80;101634.09;4359686;32;32904;-84
2022/03/12 07:42:50;;;;;;;4.68;2.47;;;;;;;2.01;29.88;101651.72;4354991;32;33831;-84
2022/03/12 07:45:20;;;;;;;6.30;2.78;;;;;;;2.33;30.09;101635.84;4370740;32;33983;-85
2022/03/12 07:47:49;;;;;;;6.35;2.87;;;;;;;2.92;29.16;101628.22;4359512;32;32055;-85
2022/03/12 07:50:18;;;;;;;4.90;2.05;;;;;;;2.50;29.17;101627.50;4358650;32;32904;-85
2022/03/12 07:52:46;;;;;;;4.47;2.40;;;;;;;2.66;29.10;101626.06;4358597;32;33583;-85
2022/03/12 07:55:16;;;;;;;6.07;2.70;;;;;;;2.71;28.78;101618.31;4366476;32;33866;-85
2022/03/12 07:57:43;;;;;;;4.70;2.60;;;;;;;3.04;28.88;101615.38;4370993;32;33482;-85
2022/03/12 08:00:14;;;;;;;7.78;2.05;;;;;;;2.80;28.94;101621.97;4359396;32;33028;-84
2022/03/12 08:02:46;;;;;;;6.82;2.28;;;;;;;2.96;28.42;101614.38;4360080;32;33513;-84
2022/03/12 08:05:16;;;;;;;3.78;2.47;;;;;;;3.36;29.00;101614.97;4358600;32;32847;-84
2022/03/12 08:07:44;;;;;;;5.70;2.28;;;;;;;3.16;28.60;101618.19;4363555;32;32725;-85
2022/03/12 08:10:12;;;;;;;8.52;2.22;;;;;;;3.22;27.90;101620.00;4359368;32;35608;-84
2022/03/12 08:12:39;;;;;;;4.03;1.90;;;;;;;2.98;27.84;101615.25;4359260;32;33765;-84
2022/03/12 08:15:11;;;;;;;6.47;1.92;;;;;;;2.86;27.17;101617.69;4371466;32;33197;-83
2022/03/12 08:17:43;;;;;;;5.60;2.85;;;;;;;3.19;26.88;101618.22;4358803;32;33613;-83
2022/03/12 08:20:11;;;;;;;7.80;2.90;;;;;;;3.16;27.09;101623.41;4367746;32;32750;-82
2022/03/12 08:22:44;;;;;;;2.70;2.37;;;;;;;2.98;26.92;101620.47;4346853;32;33950;-83
2022/03/12 08:25:13;;;;;;;11.07;3.22;;;;;;;3.41;27.59;101618.53;4371676;32;34028;-82
2022/03/12 08:27:41;;;;;;;4.72;2.20;;;;;;;3.85;27.00;101616.56;4370668;32;34161;-83
2022/03/12 08:30:09;;;;;;;8.68;3.00;;;;;;;4.24;26.38;101610.03;4357214;32;34027;-83
2022/03/12 08:32:40;;;;;;;4.57;2.92;;;;;;;4.26;25.30;101613.53;4371207;32;33778;-83
2022/03/12 08:35:09;;;;;;;4.75;2.53;;;;;;;4.23;24.66;101609.16;4359099;32;33308;-83
2022/03/12 08:37:39;;;;;;;10.55;2.50;;;;;;;4.39;24.99;101619.78;4346252;32;32717;-83
2022/03/12 08:40:07;;;;;;;7.10;3.03;;;;;;;4.33;25.34;101611.03;4360129;32;34280;-83
2022/03/12 08:42:35;;;;;;;5.68;3.03;;;;;;;4.71;25.18;101607.03;4343832;32;33091;-83
2022/03/12 08:45:04;;;;;;;4.80;2.72;;;;;;;4.83;26.21;101607.13;4361055;32;33436;-84
2022/03/12 08:47:31;;;;;;;5.43;3.00;;;;;;;4.75;23.83;101607.06;4373350;32;33992;-83
2022/03/12 08:50:00;;;;;;;6.47;3.17;;;;;;;4.90;22.49;101608.94;4358270;32;33323;-83
2022/03/12 08:52:28;;;;;;;8.43;3.22;;;;;;;5.03;22.91;101609.91;4353942;32;33205;-82
2022/03/12 08:54:55;;;;;;;6.80;2.67;;;;;;;5.58;22.76;101605.91;4373473;32;33651;-83
2022/03/12 08:57:23;;;;;;;4.22;2.53;;;;;;;5.00;22.94;101604.66;4352954;32;34160;-83
2022/03/12 08:59:51;;;;;;;4.82;2.80;;;;;;;5.65;23.86;101591.12;4354671;32;34292;-83
2022/03/12 09:02:19;;;;;;;5.60;2.90;;;;;;;5.81;22.24;101592.94;4342483;32;33215;-87
2022/03/12 09:04:47;;;;;;;9.23;3.72;;;;;;;5.15;23.53;101604.78;4361344;32;33518;-87
2022/03/12 09:07:15;;;;;;;3.92;2.90;;;;;;;5.93;22.14;101601.75;4361012;32;34354;-87
2022/03/12 09:09:43;;;;;;;5.18;2.90;;;;;;;5.97;22.53;101599.16;4359470;32;33907;-87
2022/03/12 09:12:11;;;;;;;5.55;2.62;;;;;;;6.02;22.31;101594.78;4372929;32;34313;-87
2022/03/12 09:14:39;;;;;;;5.32;2.87;;;;;;;6.02;22.21;101596.53;4346215;32;32802;-87
2022/03/12 09:17:07;;;;;;;6.35;3.80;;;;;;;5.77;21.99;101601.66;4350828;32;33341;-87
2022/03/12 09:19:36;;;;;;;4.50;2.50;;;;;;;5.57;21.92;101598.94;4374639;32;33020;-87
2022/03/12 09:22:04;;;;;;;4.55;2.30;;;;;;;6.20;21.50;101595.72;4359937;32;33820;-86
2022/03/12 09:24:32;;;;;;;5.28;2.87;;;;;;;6.84;20.28;101588.84;4353119;32;33634;-87
2022/03/12 09:27:00;;;;;;;6.15;2.67;;;;;;;6.37;22.92;101589.66;4343045;32;32763;-88
2022/03/12 09:29:28;;;;;;;5.32;2.50;;;;;;;6.55;21.32;101603.66;4357149;32;32706;-87
2022/03/12 09:31:55;;;;;;;5.00;2.75;;;;;;;6.70;22.01;101587.97;4352632;32;33036;-87
2022/03/12 09:34:23;;;;;;;5.05;2.97;;;;;;;6.54;20.31;101591.44;4340190;32;32464;-87
2022/03/12 09:36:52;;;;;;;6.80;2.35;;;;;;;6.55;20.48;101587.94;4348130;32;33187;-87
2022/03/12 09:39:20;;;;;;;4.70;2.30;;;;;;;6.90;21.20;101583.59;4369282;32;33505;-86
2022/03/12 09:41:48;;;;;;;5.87;2.60;;;;;;;7.06;19.58;101581.81;4344586;32;33195;-87
2022/03/12 09:44:17;;;;;;;4.65;2.03;;;;;;;7.56;20.26;101577.38;4353630;32;33265;-87
2022/03/12 09:46:45;;;;;;;5.90;2.97;;;;;;;7.51;21.76;101566.00;4355718;32;32540;-87
2022/03/12 09:49:16;;;;;;;4.40;2.33;;;;;;;7.42;20.22;101565.13;4349681;32;32948;-87
2022/03/12 09:51:45;;;;;;;14.52;2.90;;;;;;;7.60;19.42;101565.97;4361413;32;33261;-87
2022/03/12 09:54:13;;;;;;;4.62;2.78;;;;;;;7.13;19.75;101578.31;4368199;32;32504;-87
2022/03/12 09:56:43;;;;;;;4.28;2.08;;;;;;;7.46;19.60;101567.75;4356845;32;34553;-87
2022/03/12 09:59:11;;;;;;;8.38;3.05;;;;;;;7.25;21.98;101577.41;4372200;32;33065;-87
2022/03/12 10:01:38;;;;;;;7.75;3.42;;;;;;;7.25;19.58;101568.66;4372369;32;34196;-87
2022/03/12 10:04:07;;;;;;;6.18;3.47;;;;;;;7.98;19.89;101563.19;4347205;32;32330;-87
2022/03/12 10:06:34;;;;;;;4.90;3.08;;;;;;;7.48;20.96;101553.72;4374017;32;32507;-87
2022/03/12 10:09:04;;;;;;;6.37;2.97;;;;;;;8.23;20.79;101552.50;4349183;32;34043;-87
2022/03/12 10:11:34;;;;;;;7.30;2.72;;;;;;;7.87;19.93;101557.06;4357321;32;34679;-87
2022/03/12 10:14:01;;;;;;;8.38;3.15;;;;;;;8.31;18.99;101548.94;4373464;32;33727;-87
2022/03/12 10:16:33;;;;;;;5.35;2.78;;;;;;;8.73;19.53;101552.16;4347461;32;32683;-88
2022/03/12 10:19:01;;;;;;;5.57;2.67;;;;;;;9.18;19.00;101550.00;4348823;32;32264;-88
2022/03/12 10:21:30;;;;;;;10.93;2.85;;;;;;;8.27;19.96;101547.22;4374548;32;33866;-87
2022/03/12 10:23:59;;;;;;;5.20;2.55;;;;;;;7.72;20.88;101558.00;4361667;32;33576;-87
2022/03/12 10:26:28;;;;;;;6.55;2.33;;;;;;;7.83;19.74;101556.22;4355935;32;33049;-88
2022/03/12 10:28:55;;;;;;;4.30;2.00;;;;;;;8.35;19.79;101544.53;4361329;32;34059;-88
2022/03/12 10:31:24;;;;;;;6.28;3.03;;;;;;;8.57;22.25;101551.41;4348048;32;32579;-87
2022/03/12 10:33:52;;;;;;;3.35;1.95;;;;;;;8.08;19.61;101545.59;4357458;32;33457;-88
2022/03/12 10:36:19;;;;;;;4.78;2.30;;;;;;;8.49;18.50;101547.97;4361290;32;33638;-87
2022/03/12 10:38:50;;;;;;;6.12;2.47;;;;;;;8.73;20.20;101549.53;4373364;32;32952;-87
2022/03/12 10:41:18;;;;;;;6.10;2.10;;;;;;;9.10;17.66;101536.03;4347347;32;33323;-88
2022/03/12 10:43:48;;;;;;;5.53;2.72;;;;;;;9.04;21.14;101536.09;4356511;32;34407;-87
2022/03/12 10:46:27;;;;;;;4.75;2.17;;;;;;;8.44;21.13;101540.09;4352344;32;32596;-87
2022/03/12 10:48:57;;;;;;;4.82;2.37;;;;;;;8.51;18.98;101542.72;4360842;32;33721;-87
2022/03/12 10:51:39;;;;;;;2.75;1.87;;;;;;;9.26;18.13;101527.09;4372122;32;34038;-87
2022/03/12 10:54:15;;;;;;;3.92;2.00;;;;;;;9.17;19.99;101529.84;4361058;32;32739;-88
2022/03/12 10:56:48;;;;;;;4.25;2.30;;;;;;;8.83;20.19;101530.16;4366543;32;34259;-88
2022/03/12 10:59:25;;;;;;;4.50;2.25;;;;;;;9.65;19.62;101512.56;4372777;32;33099;-87
2022/03/12 11:02:04;;;;;;;3.70;2.20;;;;;;;9.56;18.67;101519.72;4355226;32;33923;-88
2022/03/12 11:04:34;;;;;;;2.95;1.83;;;;;;;9.77;18.53;101500.97;4372978;32;32138;-88
2022/03/12 11:07:24;;;;;;;3.15;2.20;;;;;;;9.60;17.89;101511.75;4359570;32;33927;-88
2022/03/12 11:09:54;;;;;;;4.32;1.92;;;;;;;9.48;17.21;101506.62;4348801;32;33182;-88
2022/03/12 11:12:35;;;;;;;4.97;2.35;;;;;;;9.22;19.74;101514.84;4360907;32;34220;-88
2022/03/12 11:15:05;;;;;;;3.30;2.05;;;;;;;9.70;18.24;101507.25;4360669;32;32378;-88
2022/03/12 11:17:43;;;;;;;6.12;2.10;;;;;;;9.21;16.77;101507.81;4360276;32;35009;-88
2022/03/12 11:20:22;;;;;;;2.33;1.92;;;;;;;9.65;18.84;101494.09;4365850;32;33651;-88
2022/03/12 11:23:04;;;;;;;3.50;1.73;;;;;;;9.58;17.77;101492.41;4361617;32;34687;-88
2022/03/12 11:25:36;;;;;;;3.28;2.80;;;;;;;9.11;17.63;101490.34;4356782;32;33995;-88
2022/03/12 11:28:18;;;;;;;2.90;1.98;;;;;;;9.35;18.39;101479.56;4360096;32;34853;-88
2022/03/12 11:30:47;;;;;;;4.97;2.03;;;;;;;9.58;19.08;101483.66;4355334;32;32936;-88
2022/03/12 11:33:15;;;;;;;2.95;2.00;;;;;;;9.64;19.24;101478.31;4371317;32;33260;-88
2022/03/12 11:35:45;;;;;;;5.07;2.15;;;;;;;10.09;18.73;101484.69;4360214;32;33141;-88
2022/03/12 11:38:22;;;;;;;3.25;1.90;;;;;;;10.19;16.63;101480.16;4360858;32;33483;-88